Terminal Aerodrome Forecast
Issued by NWS

Home | Current Version | Previous Version | Text Only | Print | Product List | Glossary On
Versions: 1 2 3 4 5 6 7 8 9 10 11 12 13 14 15 16 17 18 19 20 21
000
FTUS43 KDLH 232300 RRA
TAFHYR
TAF
KHYR 232356Z 2400/2424 VRB05KT 1/2SM -DZ FG OVC003
     FM240400 33005KT 1SM -RASN BR OVC004
     FM240800 32010KT 1SM -SN BR OVC004
     FM241200 32012G20KT 3SM -SN BLSN OVC010
     FM241800 30014G25KT 3SM -SN BLSN OVC018=

USA.gov is the U.S. government's official web portal to all federal, state and local government web resources and services.